sensor_id;sensor_type;location;lat;lon;timestamp;pressure;altitude;pressure_sealevel;temperature;humidity
39105;BME280;46464;51.154;13.812;2023-06-14T00:01:01;51943.69;;;-146.96;64.40
39105;BME280;46464;51.154;13.812;2023-06-14T00:03:29;51951.81;;;-146.96;64.70
39105;BME280;46464;51.154;13.812;2023-06-14T00:05:58;51976.22;;;-146.96;65.19
39105;BME280;46464;51.154;13.812;2023-06-14T00:08:24;51935.53;;;-146.96;64.83
39105;BME280;46464;51.154;13.812;2023-06-14T00:10:51;51951.81;;;-146.96;65.27
39105;BME280;46464;51.154;13.812;2023-06-14T00:13:18;51964.03;;;-146.96;65.60
39105;BME280;46464;51.154;13.812;2023-06-14T00:15:45;51931.47;;;-146.96;65.88
39105;BME280;46464;51.154;13.812;2023-06-14T00:18:12;51935.53;;;-146.96;65.98
39105;BME280;46464;51.154;13.812;2023-06-14T00:20:39;51947.75;;;-146.96;66.35
39105;BME280;46464;51.154;13.812;2023-06-14T00:23:05;51959.97;;;-146.96;66.63
39105;BME280;46464;51.154;13.812;2023-06-14T00:25:32;51959.97;;;-146.96;66.79
39105;BME280;46464;51.154;13.812;2023-06-14T00:27:58;51943.69;;;-146.96;66.58
39105;BME280;46464;51.154;13.812;2023-06-14T00:30:25;51980.31;;;-146.96;66.77
39105;BME280;46464;51.154;13.812;2023-06-14T00:32:51;51939.63;;;-146.96;67.00
39105;BME280;46464;51.154;13.812;2023-06-14T00:35:18;51980.31;;;-146.96;67.08
39105;BME280;46464;51.154;13.812;2023-06-14T00:37:45;51990.47;;;-146.96;66.98
39105;BME280;46464;51.154;13.812;2023-06-14T00:40:11;51953.84;;;-146.96;66.96
39105;BME280;46464;51.154;13.812;2023-06-14T00:42:38;51972.16;;;-146.96;67.42
39105;BME280;46464;51.154;13.812;2023-06-14T00:45:05;51982.34;;;-146.96;67.60
39105;BME280;46464;51.154;13.812;2023-06-14T00:47:32;51998.63;;;-146.96;68.09
39105;BME280;46464;51.154;13.812;2023-06-14T00:49:58;51964.03;;;-146.96;67.80
39105;BME280;46464;51.154;13.812;2023-06-14T00:52:25;51953.84;;;-146.96;67.53
39105;BME280;46464;51.154;13.812;2023-06-14T00:54:51;51990.47;;;-146.96;67.83
39105;BME280;46464;51.154;13.812;2023-06-14T00:57:18;51996.59;;;-146.96;67.49
39105;BME280;46464;51.154;13.812;2023-06-14T00:59:46;52006.75;;;-146.96;67.77
39105;BME280;46464;51.154;13.812;2023-06-14T01:02:12;51953.84;;;-146.96;67.67
39105;BME280;46464;51.154;13.812;2023-06-14T01:04:41;51988.44;;;-146.96;67.76
39105;BME280;46464;51.154;13.812;2023-06-14T01:07:15;52018.97;;;-146.96;68.65
39105;BME280;46464;51.154;13.812;2023-06-14T01:09:50;51990.47;;;-146.96;69.53
39105;BME280;46464;51.154;13.812;2023-06-14T01:12:44;51992.50;;;-146.96;69.72
39105;BME280;46464;51.154;13.812;2023-06-14T01:15:13;52035.25;;;-146.96;69.98
39105;BME280;46464;51.154;13.812;2023-06-14T01:17:41;52031.16;;;-146.96;70.39
39105;BME280;46464;51.154;13.812;2023-06-14T01:20:10;52031.16;;;-146.96;71.29
39105;BME280;46464;51.154;13.812;2023-06-14T01:22:52;52000.66;;;-146.96;71.33
39105;BME280;46464;51.154;13.812;2023-06-14T01:25:19;52012.84;;;-146.96;71.46
39105;BME280;46464;51.154;13.812;2023-06-14T01:27:48;52012.84;;;-146.96;71.62
39105;BME280;46464;51.154;13.812;2023-06-14T01:30:15;52012.84;;;-146.96;71.88
39105;BME280;46464;51.154;13.812;2023-06-14T01:32:43;52004.72;;;-146.96;71.90
39105;BME280;46464;51.154;13.812;2023-06-14T01:35:10;52012.84;;;-146.96;71.87
39105;BME280;46464;51.154;13.812;2023-06-14T01:37:36;52031.16;;;-146.96;71.89
39105;BME280;46464;51.154;13.812;2023-06-14T01:40:06;52023.03;;;-146.96;71.85
39105;BME280;46464;51.154;13.812;2023-06-14T01:42:33;52031.16;;;-146.96;72.52
39105;BME280;46464;51.154;13.812;2023-06-14T01:45:02;52031.16;;;-146.96;72.28
39105;BME280;46464;51.154;13.812;2023-06-14T01:47:29;52041.34;;;-146.96;71.06
39105;BME280;46464;51.154;13.812;2023-06-14T01:49:56;52021.00;;;-146.96;70.35
39105;BME280;46464;51.154;13.812;2023-06-14T01:52:23;52033.19;;;-146.96;70.13
39105;BME280;46464;51.154;13.812;2023-06-14T01:54:50;52012.84;;;-146.96;70.66
39105;BME280;46464;51.154;13.812;2023-06-14T01:57:17;52051.50;;;-146.96;71.00
39105;BME280;46464;51.154;13.812;2023-06-14T01:59:43;52067.78;;;-146.96;71.69
39105;BME280;46464;51.154;13.812;2023-06-14T02:02:14;52021.00;;;-146.96;72.80
39105;BME280;46464;51.154;13.812;2023-06-14T02:04:41;52035.25;;;-146.96;72.58
39105;BME280;46464;51.154;13.812;2023-06-14T02:07:08;52059.66;;;-146.96;72.45
39105;BME280;46464;51.154;13.812;2023-06-14T02:09:34;52029.13;;;-146.96;72.92
39105;BME280;46464;51.154;13.812;2023-06-14T02:12:03;52016.94;;;-146.96;73.28
39105;BME280;46464;51.154;13.812;2023-06-14T02:14:30;52080.00;;;-146.96;73.00
39105;BME280;46464;51.154;13.812;2023-06-14T02:16:56;51994.53;;;-146.96;72.92
39105;BME280;46464;51.154;13.812;2023-06-14T02:19:23;52041.34;;;-146.96;72.88
39105;BME280;46464;51.154;13.812;2023-06-14T02:21:49;52035.25;;;-146.96;72.86
39105;BME280;46464;51.154;13.812;2023-06-14T02:24:16;52051.50;;;-146.96;72.69
39105;BME280;46464;51.154;13.812;2023-06-14T02:26:42;52031.16;;;-146.96;72.72
39105;BME280;46464;51.154;13.812;2023-06-14T02:29:09;52069.81;;;-146.96;72.97
39105;BME280;46464;51.154;13.812;2023-06-14T02:31:38;52055.59;;;-146.96;73.23
39105;BME280;46464;51.154;13.812;2023-06-14T02:34:05;52057.63;;;-146.96;73.36
39105;BME280;46464;51.154;13.812;2023-06-14T02:36:31;52063.72;;;-146.96;73.92
39105;BME280;46464;51.154;13.812;2023-06-14T02:38:57;52045.41;;;-146.96;73.77
39105;BME280;46464;51.154;13.812;2023-06-14T02:41:24;52065.75;;;-146.96;73.86
39105;BME280;46464;51.154;13.812;2023-06-14T02:43:52;52057.63;;;-146.96;73.85
39105;BME280;46464;51.154;13.812;2023-06-14T02:46:19;52029.13;;;-146.96;74.03
39105;BME280;46464;51.154;13.812;2023-06-14T02:48:45;52077.97;;;-146.96;73.92
39105;BME280;46464;51.154;13.812;2023-06-14T02:51:12;52110.53;;;-146.96;75.00
39105;BME280;46464;51.154;13.812;2023-06-14T02:53:38;52047.44;;;-146.96;74.75
39105;BME280;46464;51.154;13.812;2023-06-14T02:56:05;52100.34;;;-146.96;74.83
39105;BME280;46464;51.154;13.812;2023-06-14T02:58:31;52090.16;;;-146.96;74.80
39105;BME280;46464;51.154;13.812;2023-06-14T03:00:59;52053.53;;;-146.96;74.54
39105;BME280;46464;51.154;13.812;2023-06-14T03:03:30;52033.19;;;-146.96;74.26
39105;BME280;46464;51.154;13.812;2023-06-14T03:05:56;52041.34;;;-146.96;74.23
39105;BME280;46464;51.154;13.812;2023-06-14T03:08:23;52067.78;;;-146.96;74.86
39105;BME280;46464;51.154;13.812;2023-06-14T03:10:53;52039.31;;;-146.96;74.64
39105;BME280;46464;51.154;13.812;2023-06-14T03:13:22;52055.59;;;-146.96;74.58
39105;BME280;46464;51.154;13.812;2023-06-14T03:15:49;52051.50;;;-146.96;74.61
39105;BME280;46464;51.154;13.812;2023-06-14T03:18:18;52092.22;;;-146.96;75.01
39105;BME280;46464;51.154;13.812;2023-06-14T03:20:45;52098.31;;;-146.96;75.07
39105;BME280;46464;51.154;13.812;2023-06-14T03:23:12;52104.41;;;-146.96;74.91
39105;BME280;46464;51.154;13.812;2023-06-14T03:25:39;52084.06;;;-146.96;74.95
39105;BME280;46464;51.154;13.812;2023-06-14T03:28:08;52082.03;;;-146.96;75.33
39105;BME280;46464;51.154;13.812;2023-06-14T03:30:34;52088.13;;;-146.96;75.72
39105;BME280;46464;51.154;13.812;2023-06-14T03:33:01;52075.94;;;-146.96;75.53
39105;BME280;46464;51.154;13.812;2023-06-14T03:35:28;52080.00;;;-146.96;75.74
39105;BME280;46464;51.154;13.812;2023-06-14T03:37:54;52096.28;;;-146.96;77.13
39105;BME280;46464;51.154;13.812;2023-06-14T03:40:21;52086.09;;;-146.96;76.50
39105;BME280;46464;51.154;13.812;2023-06-14T03:42:48;52061.69;;;-146.96;77.15
39105;BME280;46464;51.154;13.812;2023-06-14T03:45:14;52090.16;;;-146.96;78.01
39105;BME280;46464;51.154;13.812;2023-06-14T03:47:41;52051.50;;;-146.96;77.86
39105;BME280;46464;51.154;13.812;2023-06-14T03:50:07;52041.34;;;-146.96;77.27
39105;BME280;46464;51.154;13.812;2023-06-14T03:52:34;52041.34;;;-146.96;77.43
39105;BME280;46464;51.154;13.812;2023-06-14T03:55:00;52049.47;;;-146.96;77.48
39105;BME280;46464;51.154;13.812;2023-06-14T03:57:30;52035.25;;;-146.96;77.48
39105;BME280;46464;51.154;13.812;2023-06-14T03:59:57;52063.72;;;-146.96;77.85
39105;BME280;46464;51.154;13.812;2023-06-14T04:02:23;52051.50;;;-146.96;77.79
39105;BME280;46464;51.154;13.812;2023-06-14T04:04:50;52023.03;;;-146.96;78.16
39105;BME280;46464;51.154;13.812;2023-06-14T04:07:17;52041.34;;;-146.96;77.35
39105;BME280;46464;51.154;13.812;2023-06-14T04:09:47;52053.53;;;-146.96;77.40
39105;BME280;46464;51.154;13.812;2023-06-14T04:12:13;52027.09;;;-146.96;77.05
39105;BME280;46464;51.154;13.812;2023-06-14T04:14:40;52027.09;;;-146.96;77.08
39105;BME280;46464;51.154;13.812;2023-06-14T04:17:07;52029.13;;;-146.96;76.56
39105;BME280;46464;51.154;13.812;2023-06-14T04:19:33;52057.63;;;-146.96;76.61
39105;BME280;46464;51.154;13.812;2023-06-14T04:21:59;52065.75;;;-146.96;76.81
39105;BME280;46464;51.154;13.812;2023-06-14T04:24:29;52023.03;;;-146.96;76.86
39105;BME280;46464;51.154;13.812;2023-06-14T04:26:58;52031.16;;;-146.96;76.76
39105;BME280;46464;51.154;13.812;2023-06-14T04:29:25;52004.72;;;-146.96;76.99
39105;BME280;46464;51.154;13.812;2023-06-14T04:31:53;52018.97;;;-146.96;77.35
39105;BME280;46464;51.154;13.812;2023-06-14T04:34:22;52047.44;;;-146.96;76.39
39105;BME280;46464;51.154;13.812;2023-06-14T04:36:50;52027.09;;;-146.96;76.40
39105;BME280;46464;51.154;13.812;2023-06-14T04:39:19;51986.41;;;-146.96;75.65
39105;BME280;46464;51.154;13.812;2023-06-14T04:41:46;52029.13;;;-146.96;75.67
39105;BME280;46464;51.154;13.812;2023-06-14T04:44:13;52008.78;;;-146.96;75.98
39105;BME280;46464;51.154;13.812;2023-06-14T04:46:39;52000.66;;;-146.96;76.15
39105;BME280;46464;51.154;13.812;2023-06-14T04:49:15;52000.66;;;-146.96;76.19
39105;BME280;46464;51.154;13.812;2023-06-14T04:51:42;52018.97;;;-146.96;75.96
39105;BME280;46464;51.154;13.812;2023-06-14T04:54:09;52002.69;;;-146.96;76.17
39105;BME280;46464;51.154;13.812;2023-06-14T04:56:41;51964.03;;;-146.96;75.22
39105;BME280;46464;51.154;13.812;2023-06-14T04:59:12;51988.44;;;-146.96;75.17
39105;BME280;46464;51.154;13.812;2023-06-14T05:01:39;51962.00;;;-146.96;74.71
39105;BME280;46464;51.154;13.812;2023-06-14T05:04:05;51986.41;;;-146.96;74.83
39105;BME280;46464;51.154;13.812;2023-06-14T05:06:32;51996.59;;;-146.96;74.91
39105;BME280;46464;51.154;13.812;2023-06-14T05:08:58;51976.22;;;-146.96;74.48
39105;BME280;46464;51.154;13.812;2023-06-14T05:11:25;51957.91;;;-146.96;74.33
39105;BME280;46464;51.154;13.812;2023-06-14T05:13:53;51964.03;;;-146.96;73.35
39105;BME280;46464;51.154;13.812;2023-06-14T05:16:19;51976.22;;;-146.96;73.38
39105;BME280;46464;51.154;13.812;2023-06-14T05:18:46;51980.31;;;-146.96;73.14
39105;BME280;46464;51.154;13.812;2023-06-14T05:21:13;51931.47;;;-146.96;72.58
39105;BME280;46464;51.154;13.812;2023-06-14T05:23:44;51943.69;;;-146.96;72.05
39105;BME280;46464;51.154;13.812;2023-06-14T05:26:13;51929.44;;;-146.96;71.33
39105;BME280;46464;51.154;13.812;2023-06-14T05:28:40;51868.41;;;-146.96;71.04
39105;BME280;46464;51.154;13.812;2023-06-14T05:31:06;51888.75;;;-146.96;68.20
39105;BME280;46464;51.154;13.812;2023-06-14T05:33:33;51890.78;;;-146.96;66.23
39105;BME280;46464;51.154;13.812;2023-06-14T05:36:00;51874.50;;;-146.96;65.72
39105;BME280;46464;51.154;13.812;2023-06-14T05:38:26;51850.09;;;-146.96;64.51
39105;BME280;46464;51.154;13.812;2023-06-14T05:40:52;51803.31;;;-146.96;63.21
39105;BME280;46464;51.154;13.812;2023-06-14T05:43:20;51791.09;;;-146.96;61.88
39105;BME280;46464;51.154;13.812;2023-06-14T05:45:46;51776.84;;;-146.96;58.51
39105;BME280;46464;51.154;13.812;2023-06-14T05:48:13;51734.13;;;-146.96;57.47
39105;BME280;46464;51.154;13.812;2023-06-14T05:50:39;51689.38;;;-146.96;55.12
39105;BME280;46464;51.154;13.812;2023-06-14T05:53:06;51673.09;;;-146.96;53.65
39105;BME280;46464;51.154;13.812;2023-06-14T05:55:32;51687.34;;;-146.96;52.66
39105;BME280;46464;51.154;13.812;2023-06-14T05:57:58;51656.81;;;-146.96;51.82
39105;BME280;46464;51.154;13.812;2023-06-14T06:00:25;51695.47;;;-146.96;50.98
39105;BME280;46464;51.154;13.812;2023-06-14T06:02:52;51664.97;;;-146.96;50.89
39105;BME280;46464;51.154;13.812;2023-06-14T06:05:18;51664.97;;;-146.96;50.04
39105;BME280;46464;51.154;13.812;2023-06-14T06:07:45;51644.63;;;-146.96;50.13
39105;BME280;46464;51.154;13.812;2023-06-14T06:10:12;51622.25;;;-146.96;48.69
39105;BME280;46464;51.154;13.812;2023-06-14T06:12:38;51573.41;;;-146.96;47.90
39105;BME280;46464;51.154;13.812;2023-06-14T06:15:05;51595.78;;;-146.96;47.50
39105;BME280;46464;51.154;13.812;2023-06-14T06:17:32;51591.72;;;-146.96;46.82
39105;BME280;46464;51.154;13.812;2023-06-14T06:20:18;51524.59;;;-146.96;45.56
39105;BME280;46464;51.154;13.812;2023-06-14T06:22:45;51532.72;;;-146.96;44.70
39105;BME280;46464;51.154;13.812;2023-06-14T06:25:11;51487.97;;;-146.96;43.65
39105;BME280;46464;51.154;13.812;2023-06-14T06:27:38;51463.56;;;-146.96;42.58
39105;BME280;46464;51.154;13.812;2023-06-14T06:30:06;51459.50;;;-146.96;41.67
39105;BME280;46464;51.154;13.812;2023-06-14T06:32:33;51414.75;;;-146.96;41.23
39105;BME280;46464;51.154;13.812;2023-06-14T06:34:59;51426.94;;;-146.96;40.66
39105;BME280;46464;51.154;13.812;2023-06-14T06:37:26;51431.00;;;-146.96;40.24
39105;BME280;46464;51.154;13.812;2023-06-14T06:39:52;51394.41;;;-146.96;40.23
39105;BME280;46464;51.154;13.812;2023-06-14T06:42:19;51374.06;;;-146.96;39.53
39105;BME280;46464;51.154;13.812;2023-06-14T06:44:46;51357.78;;;-146.96;38.98
39105;BME280;46464;51.154;13.812;2023-06-14T06:47:12;51388.28;;;-146.96;39.70
39105;BME280;46464;51.154;13.812;2023-06-14T06:49:39;51396.44;;;-146.96;40.28
39105;BME280;46464;51.154;13.812;2023-06-14T06:52:06;51408.63;;;-146.96;38.67
39105;BME280;46464;51.154;13.812;2023-06-14T06:54:33;51402.53;;;-146.96;38.79
39105;BME280;46464;51.154;13.812;2023-06-14T06:56:59;51392.34;;;-146.96;39.47
39105;BME280;46464;51.154;13.812;2023-06-14T06:59:27;51386.25;;;-146.96;38.30
39105;BME280;46464;51.154;13.812;2023-06-14T07:01:54;51347.59;;;-146.96;38.80
39105;BME280;46464;51.154;13.812;2023-06-14T07:04:21;51369.97;;;-146.96;37.96
39105;BME280;46464;51.154;13.812;2023-06-14T07:06:47;51410.66;;;-146.96;37.96
39105;BME280;46464;51.154;13.812;2023-06-14T07:09:14;51394.41;;;-146.96;38.38
39105;BME280;46464;51.154;13.812;2023-06-14T07:11:43;51398.47;;;-146.96;39.36
39105;BME280;46464;51.154;13.812;2023-06-14T07:14:09;51376.09;;;-146.96;38.43
39105;BME280;46464;51.154;13.812;2023-06-14T07:16:36;51380.16;;;-146.96;37.57
39105;BME280;46464;51.154;13.812;2023-06-14T07:19:03;51402.53;;;-146.96;36.93
39105;BME280;46464;51.154;13.812;2023-06-14T07:21:29;51426.94;;;-146.96;37.94
39105;BME280;46464;51.154;13.812;2023-06-14T07:23:56;51412.69;;;-146.96;38.88
39105;BME280;46464;51.154;13.812;2023-06-14T07:26:22;51455.41;;;-146.96;37.91
39105;BME280;46464;51.154;13.812;2023-06-14T07:28:49;51424.91;;;-146.96;38.47
39105;BME280;46464;51.154;13.812;2023-06-14T07:31:15;51459.50;;;-146.96;39.44
39105;BME280;46464;51.154;13.812;2023-06-14T07:33:42;51451.34;;;-146.96;39.64
39105;BME280;46464;51.154;13.812;2023-06-14T07:36:09;51437.13;;;-146.96;39.19
39105;BME280;46464;51.154;13.812;2023-06-14T07:38:35;51465.59;;;-146.96;39.62
39105;BME280;46464;51.154;13.812;2023-06-14T07:41:03;51498.16;;;-146.96;40.19
39105;BME280;46464;51.154;13.812;2023-06-14T07:43:29;51471.69;;;-146.96;40.14
39105;BME280;46464;51.154;13.812;2023-06-14T07:45:55;51485.94;;;-146.96;40.23
39105;BME280;46464;51.154;13.812;2023-06-14T07:48:33;51487.97;;;-146.96;40.09
39105;BME280;46464;51.154;13.812;2023-06-14T07:51:00;51494.06;;;-146.96;40.31
39105;BME280;46464;51.154;13.812;2023-06-14T07:53:27;51494.06;;;-146.96;40.79
39105;BME280;46464;51.154;13.812;2023-06-14T07:55:54;51492.03;;;-146.96;40.74
39105;BME280;46464;51.154;13.812;2023-06-14T07:58:20;51481.88;;;-146.96;40.30
39105;BME280;46464;51.154;13.812;2023-06-14T08:00:47;51463.56;;;-146.96;39.75
39105;BME280;46464;51.154;13.812;2023-06-14T08:03:13;51471.69;;;-146.96;40.04
39105;BME280;46464;51.154;13.812;2023-06-14T08:05:40;51475.75;;;-146.96;39.74
39105;BME280;46464;51.154;13.812;2023-06-14T08:08:07;51459.50;;;-146.96;40.16
39105;BME280;46464;51.154;13.812;2023-06-14T08:10:33;51467.63;;;-146.96;40.29
39105;BME280;46464;51.154;13.812;2023-06-14T08:13:00;51483.91;;;-146.96;40.40
39105;BME280;46464;51.154;13.812;2023-06-14T08:15:28;51540.88;;;-146.96;40.02
39105;BME280;46464;51.154;13.812;2023-06-14T08:17:54;51512.38;;;-146.96;40.74
39105;BME280;46464;51.154;13.812;2023-06-14T08:20:21;51490.00;;;-146.96;39.54
39105;BME280;46464;51.154;13.812;2023-06-14T08:22:47;51483.91;;;-146.96;39.93
39105;BME280;46464;51.154;13.812;2023-06-14T08:25:14;51528.66;;;-146.96;40.60
39105;BME280;46464;51.154;13.812;2023-06-14T08:27:41;51524.59;;;-146.96;40.99
39105;BME280;46464;51.154;13.812;2023-06-14T08:30:08;51514.41;;;-146.96;41.00
39105;BME280;46464;51.154;13.812;2023-06-14T08:32:35;51559.16;;;-146.96;41.11
39105;BME280;46464;51.154;13.812;2023-06-14T08:35:01;51546.97;;;-146.96;42.15
39105;BME280;46464;51.154;13.812;2023-06-14T08:37:31;51544.94;;;-146.96;42.50
39105;BME280;46464;51.154;13.812;2023-06-14T08:40:02;51571.38;;;-146.96;41.98
39105;BME280;46464;51.154;13.812;2023-06-14T08:42:32;51536.78;;;-146.96;42.08
39105;BME280;46464;51.154;13.812;2023-06-14T08:44:59;51565.28;;;-146.96;42.82
39105;BME280;46464;51.154;13.812;2023-06-14T08:47:26;51555.09;;;-146.96;43.16
39105;BME280;46464;51.154;13.812;2023-06-14T08:49:53;51538.81;;;-146.96;43.10
39105;BME280;46464;51.154;13.812;2023-06-14T08:52:23;51583.59;;;-146.96;43.41
39105;BME280;46464;51.154;13.812;2023-06-14T08:54:52;51593.75;;;-146.96;43.41
39105;BME280;46464;51.154;13.812;2023-06-14T08:57:18;51612.06;;;-146.96;43.06
39105;BME280;46464;51.154;13.812;2023-06-14T08:59:47;51573.41;;;-146.96;43.70
39105;BME280;46464;51.154;13.812;2023-06-14T09:02:18;51542.91;;;-146.96;42.81
39105;BME280;46464;51.154;13.812;2023-06-14T09:04:46;51575.44;;;-146.96;43.44
39105;BME280;46464;51.154;13.812;2023-06-14T09:07:13;51565.28;;;-146.96;43.20
39105;BME280;46464;51.154;13.812;2023-06-14T09:09:40;51601.91;;;-146.96;43.18
39105;BME280;46464;51.154;13.812;2023-06-14T09:12:27;51605.97;;;-146.96;43.46
39105;BME280;46464;51.154;13.812;2023-06-14T09:14:54;51595.78;;;-146.96;43.51
39105;BME280;46464;51.154;13.812;2023-06-14T09:17:20;51589.69;;;-146.96;43.82
39105;BME280;46464;51.154;13.812;2023-06-14T09:19:49;51557.13;;;-146.96;43.61
39105;BME280;46464;51.154;13.812;2023-06-14T09:22:16;51559.16;;;-146.96;43.64
39105;BME280;46464;51.154;13.812;2023-06-14T09:24:42;51555.09;;;-146.96;42.81
39105;BME280;46464;51.154;13.812;2023-06-14T09:27:13;51538.81;;;-146.96;42.40
39105;BME280;46464;51.154;13.812;2023-06-14T09:29:40;51575.44;;;-146.96;42.06
39105;BME280;46464;51.154;13.812;2023-06-14T09:32:07;51565.28;;;-146.96;41.72
39105;BME280;46464;51.154;13.812;2023-06-14T09:34:34;51542.91;;;-146.96;42.46
39105;BME280;46464;51.154;13.812;2023-06-14T09:37:01;51510.34;;;-146.96;42.15
39105;BME280;46464;51.154;13.812;2023-06-14T09:39:27;51512.38;;;-146.96;41.03
39105;BME280;46464;51.154;13.812;2023-06-14T09:41:54;51524.59;;;-146.96;41.14
39105;BME280;46464;51.154;13.812;2023-06-14T09:44:20;51532.72;;;-146.96;41.20
39105;BME280;46464;51.154;13.812;2023-06-14T09:46:48;51490.00;;;-146.96;41.00
39105;BME280;46464;51.154;13.812;2023-06-14T09:49:14;51506.28;;;-146.96;40.97
39105;BME280;46464;51.154;13.812;2023-06-14T09:51:42;51508.31;;;-146.96;41.20
39105;BME280;46464;51.154;13.812;2023-06-14T09:54:11;51510.34;;;-146.96;40.64
39105;BME280;46464;51.154;13.812;2023-06-14T09:56:41;51494.06;;;-146.96;40.25
39105;BME280;46464;51.154;13.812;2023-06-14T09:59:10;51451.34;;;-146.96;39.16
39105;BME280;46464;51.154;13.812;2023-06-14T10:01:41;51469.66;;;-146.96;39.86
39105;BME280;46464;51.154;13.812;2023-06-14T10:04:09;51449.31;;;-146.96;39.42
39105;BME280;46464;51.154;13.812;2023-06-14T10:06:39;51467.63;;;-146.96;38.79
39105;BME280;46464;51.154;13.812;2023-06-14T10:09:07;51451.34;;;-146.96;39.14
39105;BME280;46464;51.154;13.812;2023-06-14T10:11:34;51431.00;;;-146.96;39.01
39105;BME280;46464;51.154;13.812;2023-06-14T10:14:02;51402.53;;;-146.96;38.64
39105;BME280;46464;51.154;13.812;2023-06-14T10:16:34;51406.59;;;-146.96;38.84
39105;BME280;46464;51.154;13.812;2023-06-14T10:19:17;51398.47;;;-146.96;38.51
39105;BME280;46464;51.154;13.812;2023-06-14T10:24:31;51388.28;;;-146.96;38.62
39105;BME280;46464;51.154;13.812;2023-06-14T10:26:58;51422.88;;;-146.96;38.65
39105;BME280;46464;51.154;13.812;2023-06-14T10:29:26;51431.00;;;-146.96;38.14
39105;BME280;46464;51.154;13.812;2023-06-14T10:31:56;51437.13;;;-146.96;40.17
39105;BME280;46464;51.154;13.812;2023-06-14T10:39:26;51492.03;;;-146.96;40.72
39105;BME280;46464;51.154;13.812;2023-06-14T10:41:54;51483.91;;;-146.96;41.20
39105;BME280;46464;51.154;13.812;2023-06-14T10:46:53;51424.91;;;-146.96;40.37
39105;BME280;46464;51.154;13.812;2023-06-14T10:49:20;51431.00;;;-146.96;40.34
39105;BME280;46464;51.154;13.812;2023-06-14T10:52:02;51416.78;;;-146.96;39.59
39105;BME280;46464;51.154;13.812;2023-06-14T10:54:29;51404.56;;;-146.96;39.83
39105;BME280;46464;51.154;13.812;2023-06-14T10:56:56;51408.63;;;-146.96;39.96
39105;BME280;46464;51.154;13.812;2023-06-14T10:59:23;51457.47;;;-146.96;39.83
39105;BME280;46464;51.154;13.812;2023-06-14T11:04:47;51404.56;;;-146.96;38.84
39105;BME280;46464;51.154;13.812;2023-06-14T11:10:05;51386.25;;;-146.96;38.97
39105;BME280;46464;51.154;13.812;2023-06-14T11:12:36;51394.41;;;-146.96;38.98
39105;BME280;46464;51.154;13.812;2023-06-14T11:15:03;51378.13;;;-146.96;38.78
39105;BME280;46464;51.154;13.812;2023-06-14T11:17:32;51414.75;;;-146.96;39.25
39105;BME280;46464;51.154;13.812;2023-06-14T11:20:11;51384.22;;;-146.96;39.10
39105;BME280;46464;51.154;13.812;2023-06-14T11:22:45;51437.13;;;-146.96;39.98
39105;BME280;46464;51.154;13.812;2023-06-14T11:25:12;51435.09;;;-146.96;40.58
39105;BME280;46464;51.154;13.812;2023-06-14T11:27:38;51441.19;;;-146.96;40.13
39105;BME280;46464;51.154;13.812;2023-06-14T11:30:07;51431.00;;;-146.96;40.47
39105;BME280;46464;51.154;13.812;2023-06-14T11:32:34;51433.03;;;-146.96;41.32
39105;BME280;46464;51.154;13.812;2023-06-14T11:35:00;51455.41;;;-146.96;41.23
39105;BME280;46464;51.154;13.812;2023-06-14T11:37:27;51418.81;;;-146.96;41.21
39105;BME280;46464;51.154;13.812;2023-06-14T11:39:57;51416.78;;;-146.96;40.84
39105;BME280;46464;51.154;13.812;2023-06-14T11:42:24;51416.78;;;-146.96;40.16
39105;BME280;46464;51.154;13.812;2023-06-14T11:44:53;51439.16;;;-146.96;40.64
39105;BME280;46464;51.154;13.812;2023-06-14T11:47:33;51424.91;;;-146.96;40.35
39105;BME280;46464;51.154;13.812;2023-06-14T11:50:02;51408.63;;;-146.96;40.35
39105;BME280;46464;51.154;13.812;2023-06-14T11:52:30;51433.03;;;-146.96;40.97
39105;BME280;46464;51.154;13.812;2023-06-14T11:54:56;51449.31;;;-146.96;41.12
39105;BME280;46464;51.154;13.812;2023-06-14T11:57:23;51437.13;;;-146.96;41.44
39105;BME280;46464;51.154;13.812;2023-06-14T11:59:51;51479.84;;;-146.96;41.86
39105;BME280;46464;51.154;13.812;2023-06-14T12:02:18;51471.69;;;-146.96;42.46
39105;BME280;46464;51.154;13.812;2023-06-14T12:04:48;51496.09;;;-146.96;42.66
39105;BME280;46464;51.154;13.812;2023-06-14T12:07:15;51457.47;;;-146.96;43.34
39105;BME280;46464;51.154;13.812;2023-06-14T12:12:22;51514.41;;;-146.96;43.37
39105;BME280;46464;51.154;13.812;2023-06-14T12:14:54;51483.91;;;-146.96;43.32
39105;BME280;46464;51.154;13.812;2023-06-14T12:17:22;51481.88;;;-146.96;43.43
39105;BME280;46464;51.154;13.812;2023-06-14T12:19:49;51526.63;;;-146.96;43.37
39105;BME280;46464;51.154;13.812;2023-06-14T12:22:16;51510.34;;;-146.96;43.65
39105;BME280;46464;51.154;13.812;2023-06-14T12:24:43;51485.94;;;-146.96;43.38
39105;BME280;46464;51.154;13.812;2023-06-14T12:27:10;51477.81;;;-146.96;42.92
39105;BME280;46464;51.154;13.812;2023-06-14T12:29:42;51467.63;;;-146.96;43.09
39105;BME280;46464;51.154;13.812;2023-06-14T12:32:11;51459.50;;;-146.96;42.64
39105;BME280;46464;51.154;13.812;2023-06-14T12:34:38;51431.00;;;-146.96;42.07
39105;BME280;46464;51.154;13.812;2023-06-14T12:37:04;51441.19;;;-146.96;41.41
39105;BME280;46464;51.154;13.812;2023-06-14T12:39:31;51386.25;;;-146.96;42.54
39105;BME280;46464;51.154;13.812;2023-06-14T12:42:00;51420.84;;;-146.96;41.79
39105;BME280;46464;51.154;13.812;2023-06-14T12:44:30;51414.75;;;-146.96;41.39
39105;BME280;46464;51.154;13.812;2023-06-14T12:46:57;51449.31;;;-146.96;41.49
39105;BME280;46464;51.154;13.812;2023-06-14T12:49:24;51477.81;;;-146.96;41.86
39105;BME280;46464;51.154;13.812;2023-06-14T12:51:50;51414.75;;;-146.96;42.53